createdAt,value
2022-12-26T00:00:18.370Z,100357.94
2022-12-26T00:03:07.654Z,100377.97
2022-12-26T00:05:58.672Z,100375.28
2022-12-26T00:08:48.662Z,100376.91
2022-12-26T00:11:39.390Z,100372.31
2022-12-26T00:14:28.764Z,100384.22
2022-12-26T00:17:19.403Z,100389.34
2022-12-26T00:20:10.062Z,100395.28
2022-12-26T00:22:59.501Z,100396.19
2022-12-26T00:25:48.825Z,100401.06
2022-12-26T00:28:38.815Z,100401.63
2022-12-26T00:31:30.911Z,100413.25
2022-12-26T00:34:21.696Z,100420.00
2022-12-26T00:37:11.630Z,100423.84
2022-12-26T00:40:00.892Z,100426.81
2022-12-26T00:42:50.396Z,100434.94
2022-12-26T00:45:39.759Z,100438.72
2022-12-26T00:48:29.226Z,100431.97
2022-12-26T00:51:20.220Z,100450.06
2022-12-26T00:54:09.471Z,100453.88
2022-12-26T00:56:58.697Z,100462.53
2022-12-26T00:59:47.847Z,100469.31
2022-12-26T01:02:40.438Z,100478.81
2022-12-26T01:05:30.277Z,100466.34
2022-12-26T01:08:24.833Z,100498.56
2022-12-26T01:11:36.560Z,100498.03
2022-12-26T01:14:25.774Z,100491.00
2022-12-26T01:17:15.122Z,100503.69
2022-12-26T01:20:04.778Z,100510.72
2022-12-26T01:22:54.722Z,100514.78
2022-12-26T01:26:18.985Z,100517.72
2022-12-26T01:28:54.855Z,100516.38
2022-12-26T01:31:44.112Z,100527.50
2022-12-26T01:34:33.622Z,100530.69
2022-12-26T01:37:24.081Z,100524.50
2022-12-26T01:40:14.561Z,100542.34
2022-12-26T01:43:05.183Z,100537.72
2022-12-26T01:45:54.786Z,100547.75
2022-12-26T01:48:44.153Z,100548.25
2022-12-26T01:51:38.379Z,100559.09
2022-12-26T01:54:40.048Z,100560.72
2022-12-26T01:57:37.718Z,100563.66
2022-12-26T02:00:28.820Z,100580.72
2022-12-26T02:03:36.890Z,100586.94
2022-12-26T02:06:26.312Z,100589.63
2022-12-26T02:09:15.547Z,100602.63
2022-12-26T02:12:37.218Z,100586.13
2022-12-26T02:15:23.970Z,100605.88
2022-12-26T02:18:14.687Z,100607.78
2022-12-26T02:21:37.851Z,100601.03
2022-12-26T02:24:51.370Z,100612.91
2022-12-26T02:28:10.544Z,100623.75
2022-12-26T02:31:07.312Z,100623.75
2022-12-26T02:34:09.331Z,100627.03
2022-12-26T02:37:12.831Z,100630.53
2022-12-26T02:40:21.613Z,100635.41
2022-12-26T02:43:23.247Z,100645.19
2022-12-26T02:46:53.022Z,100644.66
2022-12-26T02:50:22.818Z,100659.31
2022-12-26T02:53:39.576Z,100663.94
2022-12-26T02:56:51.310Z,100663.41
2022-12-26T03:00:10.904Z,100662.34
2022-12-26T03:03:22.899Z,100670.97
2022-12-26T03:06:36.099Z,100666.09
2022-12-26T03:09:47.893Z,100664.50
2022-12-26T03:13:00.868Z,100656.38
2022-12-26T03:16:15.028Z,100657.44
2022-12-26T03:19:12.318Z,100672.06
2022-12-26T03:22:23.509Z,100659.34
2022-12-26T03:25:36.991Z,100665.03
2022-12-26T03:28:27.135Z,100671.53
2022-12-26T03:31:16.516Z,100660.72
2022-12-26T03:34:20.699Z,100662.88
2022-12-26T03:37:47.663Z,100634.19
2022-12-26T03:41:10.049Z,100660.16
2022-12-26T03:44:34.233Z,100663.41
2022-12-26T03:47:53.424Z,100660.41
2022-12-26T03:51:06.339Z,100651.78
2022-12-26T03:54:21.848Z,100648.78
2022-12-26T03:57:35.407Z,100659.63
2022-12-26T04:00:42.349Z,100656.38
2022-12-26T04:03:52.767Z,100660.72
2022-12-26T04:07:08.075Z,100663.41
2022-12-26T04:10:21.886Z,100654.75
2022-12-26T04:13:38.536Z,100675.88
2022-12-26T04:16:59.496Z,100679.09
2022-12-26T04:20:03.551Z,100691.84
2022-12-26T04:23:17.184Z,100692.38
2022-12-26T04:26:27.226Z,100696.97
2022-12-26T04:29:34.434Z,100700.25
2022-12-26T04:32:53.214Z,100692.66
2022-12-26T04:36:08.322Z,100703.47
2022-12-26T04:39:21.852Z,100699.69
2022-12-26T04:42:31.080Z,100705.91
2022-12-26T04:45:22.100Z,100699.97
2022-12-26T04:48:30.692Z,100704.81
2022-12-26T04:51:19.884Z,100704.00
2022-12-26T04:54:10.765Z,100706.19
2022-12-26T04:57:00.026Z,100714.59
2022-12-26T04:59:49.301Z,100720.25
2022-12-26T05:02:55.894Z,100723.25
2022-12-26T05:06:05.795Z,100726.75
2022-12-26T05:09:12.613Z,100725.41
2022-12-26T05:12:03.663Z,100711.88
2022-12-26T05:14:52.872Z,100719.44
2022-12-26T05:17:59.344Z,100713.78
2022-12-26T05:21:05.640Z,100705.66
2022-12-26T05:24:12.011Z,100726.78
2022-12-26T05:27:20.111Z,100722.72
2022-12-26T05:30:10.732Z,100726.78
2022-12-26T05:33:17.100Z,100731.91
2022-12-26T05:36:06.970Z,100735.69
2022-12-26T05:38:56.973Z,100738.94
2022-12-26T05:41:46.339Z,100735.97
2022-12-26T05:44:37.649Z,100748.97
2022-12-26T05:47:26.904Z,100735.97
2022-12-26T05:50:16.291Z,100753.59
2022-12-26T05:53:05.615Z,100751.13
2022-12-26T05:55:54.987Z,100744.63
2022-12-26T05:58:44.467Z,100761.69
2022-12-26T06:01:35.239Z,100760.88
2022-12-26T06:04:24.840Z,100756.03
2022-12-26T06:07:14.040Z,100759.53
2022-12-26T06:10:03.327Z,100757.09
2022-12-26T06:12:53.927Z,100764.13
2022-12-26T06:15:43.214Z,100745.72
2022-12-26T06:18:33.905Z,100758.72
2022-12-26T06:21:25.344Z,100772.25
2022-12-26T06:24:15.355Z,100769.03
2022-12-26T06:27:04.794Z,100781.47
2022-12-26T06:29:54.029Z,100773.88
2022-12-26T06:32:43.277Z,100775.50
2022-12-26T06:35:35.727Z,100772.25
2022-12-26T06:38:24.902Z,100777.66
2022-12-26T06:41:17.269Z,100768.47
2022-12-26T06:44:06.899Z,100787.69
2022-12-26T06:46:56.167Z,100785.78
2022-12-26T06:49:45.569Z,100779.56
2022-12-26T06:52:36.208Z,100782.00
2022-12-26T06:55:25.463Z,100793.09
2022-12-26T06:58:15.979Z,100790.41
2022-12-26T07:01:09.977Z,100801.50
2022-12-26T07:04:00.260Z,100786.31
2022-12-26T07:06:49.569Z,100807.19
2022-12-26T07:09:40.175Z,100814.25
2022-12-26T07:12:29.347Z,100814.00
2022-12-26T07:15:18.803Z,100810.72
2022-12-26T07:18:08.031Z,100813.97
2022-12-26T07:20:57.301Z,100824.25
2022-12-26T07:23:46.655Z,100810.16
2022-12-26T07:26:37.247Z,100828.28
2022-12-26T07:29:27.033Z,100829.66
2022-12-26T07:32:16.398Z,100835.06
2022-12-26T07:35:06.753Z,100836.41
2022-12-26T07:37:56.199Z,100835.63
2022-12-26T07:40:45.686Z,100849.94
2022-12-26T07:43:36.371Z,100846.19
2022-12-26T07:46:25.704Z,100849.41
2022-12-26T07:49:15.425Z,100849.94
2022-12-26T07:52:04.798Z,100853.19
2022-12-26T07:54:54.121Z,100844.84
2022-12-26T07:57:50.527Z,100840.75
2022-12-26T08:00:41.353Z,100838.88
2022-12-26T08:03:30.786Z,100851.06
2022-12-26T08:06:20.803Z,100854.06
2022-12-26T08:09:15.983Z,100849.97
2022-12-26T08:12:05.625Z,100858.66
2022-12-26T08:14:54.848Z,100859.72
2022-12-26T08:17:45.454Z,100850.22
2022-12-26T08:20:35.277Z,100857.81
2022-12-26T08:23:24.506Z,100843.19
2022-12-26T08:26:20.794Z,100878.44
2022-12-26T08:29:11.516Z,100871.91
2022-12-26T08:32:00.960Z,100864.06
2022-12-26T08:34:51.556Z,100870.28
2022-12-26T08:37:40.839Z,100879.25
2022-12-26T08:40:42.721Z,100874.13
2022-12-26T08:46:42.917Z,100871.97
2022-12-26T08:49:32.202Z,100876.84
2022-12-26T08:52:22.883Z,100889.31
2022-12-26T08:55:13.693Z,100883.38
2022-12-26T08:58:02.933Z,100885.78
2022-12-26T09:00:55.412Z,100881.19
2022-12-26T09:03:45.716Z,100889.56
2022-12-26T09:06:38.068Z,100881.19
2022-12-26T09:09:29.052Z,100892.31
2022-12-26T09:12:18.358Z,100899.63
2022-12-26T09:15:08.623Z,100908.31
2022-12-26T09:17:57.940Z,100902.59
2022-12-26T09:20:47.188Z,100901.50
2022-12-26T09:23:36.773Z,100906.94
2022-12-26T09:26:27.693Z,100889.84
2022-12-26T09:29:16.927Z,100926.78
2022-12-26T09:32:06.941Z,100922.41
2022-12-26T09:34:56.168Z,100927.88
2022-12-26T09:37:45.845Z,100927.84
2022-12-26T09:40:52.151Z,100953.88
2022-12-26T09:43:59.905Z,100943.56
2022-12-26T09:47:02.426Z,100930.53
2022-12-26T09:49:57.991Z,100942.75
2022-12-26T09:52:51.806Z,100956.31
2022-12-26T09:55:46.352Z,100959.00
2022-12-26T09:58:43.592Z,100962.78
2022-12-26T10:01:37.861Z,100972.53
2022-12-26T10:04:30.345Z,100964.97
2022-12-26T10:07:29.580Z,100960.63
2022-12-26T10:10:26.064Z,100977.13
2022-12-26T10:13:32.488Z,100952.22
2022-12-26T10:16:30.024Z,100964.69
2022-12-26T10:19:36.566Z,100951.97
2022-12-26T10:22:52.975Z,100984.50
2022-12-26T10:25:52.584Z,100972.91
2022-12-26T10:28:50.435Z,100985.41
2022-12-26T10:31:47.345Z,100995.16
2022-12-26T10:34:43.106Z,100991.88
2022-12-26T10:37:39.045Z,101002.47
2022-12-26T10:40:36.918Z,101003.84
2022-12-26T10:43:31.548Z,100936.00
2022-12-26T10:46:41.042Z,101007.09
2022-12-26T10:49:30.866Z,101016.31
2022-12-26T10:52:29.084Z,101007.09
2022-12-26T10:55:29.094Z,101011.44
2022-12-26T10:58:25.258Z,100993.53
2022-12-26T11:01:37.008Z,101003.84
2022-12-26T11:07:41.698Z,101002.75
2022-12-26T11:10:31.493Z,101011.16
2022-12-26T11:13:24.368Z,101027.19
2022-12-26T11:16:14.139Z,100997.31
2022-12-26T11:19:03.929Z,101019.84
2022-12-26T11:21:53.189Z,101025.53
2022-12-26T11:24:43.975Z,101017.41
2022-12-26T11:27:33.964Z,101036.41
2022-12-26T11:30:31.316Z,101009.00
2022-12-26T11:33:27.073Z,101016.31
2022-12-26T11:36:23.621Z,101005.47
2022-12-26T11:39:24.230Z,101024.19
2022-12-26T11:42:25.487Z,101018.75
2022-12-26T11:45:21.898Z,101040.75
2022-12-26T11:48:24.652Z,101029.34
2022-12-26T11:51:14.723Z,101018.50
2022-12-26T11:54:29.920Z,101022.28
2022-12-26T11:57:28.955Z,101036.38
2022-12-26T12:00:22.178Z,101033.88
2022-12-26T12:03:16.585Z,101030.06
2022-12-26T12:06:28.286Z,101045.97
2022-12-26T12:09:27.340Z,101052.94
2022-12-26T12:12:24.380Z,101035.97
2022-12-26T12:15:24.076Z,101047.22
2022-12-26T12:18:23.832Z,101046.44
2022-12-26T12:21:28.514Z,101042.13
2022-12-26T12:24:39.499Z,101034.19
2022-12-26T12:27:33.254Z,101066.97
2022-12-26T12:30:30.163Z,101036.66
2022-12-26T12:33:39.772Z,101046.34
2022-12-26T12:36:38.258Z,101042.38
2022-12-26T12:39:46.398Z,101055.25
2022-12-26T12:42:47.731Z,101071.56
2022-12-26T12:45:50.757Z,101039.50
2022-12-26T12:49:02.384Z,101060.72
2022-12-26T12:52:11.223Z,101043.34
2022-12-26T12:55:33.104Z,101055.84
2022-12-26T12:58:30.313Z,101036.00
2022-12-26T13:01:28.380Z,101056.63
2022-12-26T13:04:25.512Z,101054.44
2022-12-26T13:07:21.813Z,101054.16
2022-12-26T13:10:20.742Z,101033.50
2022-12-26T13:13:19.731Z,101043.59
2022-12-26T13:16:15.200Z,101043.31
2022-12-26T13:19:10.954Z,101058.25
2022-12-26T13:22:06.437Z,101058.81
2022-12-26T13:25:00.176Z,101055.28
2022-12-26T13:27:52.734Z,101060.44
2022-12-26T13:30:42.135Z,101038.47
2022-12-26T13:33:32.757Z,101053.13
2022-12-26T13:36:46.149Z,101048.25
2022-12-26T13:39:42.322Z,101051.81
2022-12-26T13:42:55.111Z,101061.81
2022-12-26T13:45:57.488Z,101051.75
2022-12-26T13:49:00.078Z,101054.47
2022-12-26T13:52:01.161Z,101048.28
2022-12-26T13:55:43.615Z,101071.59
2022-12-26T13:58:54.135Z,101062.31
2022-12-26T14:02:01.492Z,101057.44
2022-12-26T14:05:06.587Z,101055.56
2022-12-26T14:08:05.677Z,101077.59
2022-12-26T14:11:10.185Z,101056.66
2022-12-26T14:14:13.865Z,101047.44
2022-12-26T14:17:17.034Z,101065.06
2022-12-26T14:20:26.824Z,101057.72
2022-12-26T14:23:45.792Z,101066.41
2022-12-26T14:26:59.447Z,101073.22
2022-12-26T14:29:58.671Z,101084.38
2022-12-26T14:33:04.785Z,101082.47
2022-12-26T14:36:06.825Z,101073.78
2022-12-26T14:39:05.014Z,101078.69
2022-12-26T14:42:43.090Z,101077.56
2022-12-26T14:45:49.560Z,101095.50
2022-12-26T14:48:56.643Z,101103.91
2022-12-26T14:51:46.659Z,101115.84
2022-12-26T14:54:50.778Z,101103.88
2022-12-26T14:57:48.688Z,101098.16
2022-12-26T15:00:40.019Z,101113.13
2022-12-26T15:03:45.824Z,101099.78
2022-12-26T15:07:14.070Z,101110.13
2022-12-26T15:10:43.839Z,101121.84
2022-12-26T15:14:48.031Z,101117.22
2022-12-26T15:17:51.492Z,101130.81
2022-12-26T15:21:29.359Z,101129.22
2022-12-26T15:29:06.468Z,101114.78
2022-12-26T15:32:15.364Z,101111.25
2022-12-26T15:35:22.709Z,101125.97
2022-12-26T15:38:27.186Z,101109.41
2022-12-26T15:41:28.025Z,101140.66
2022-12-26T15:44:29.676Z,101145.53
2022-12-26T15:47:28.618Z,101143.63
2022-12-26T15:50:28.219Z,101147.72
2022-12-26T15:53:30.601Z,101158.00
2022-12-26T15:56:46.082Z,101159.66
2022-12-26T16:00:10.083Z,101161.53
2022-12-26T16:03:30.600Z,101179.75
2022-12-26T16:06:44.141Z,101180.50
2022-12-26T16:09:43.746Z,101176.97
2022-12-26T16:12:40.837Z,101175.91
2022-12-26T16:15:30.906Z,101161.50
2022-12-26T16:18:22.831Z,101166.66
2022-12-26T16:21:31.965Z,101157.97
2022-12-26T16:24:23.083Z,101163.94
2022-12-26T16:27:19.798Z,101173.94
2022-12-26T16:30:17.885Z,101167.47
2022-12-26T16:33:07.493Z,101174.81
2022-12-26T16:36:00.933Z,101175.59
2022-12-26T16:38:50.919Z,101178.31
2022-12-26T16:42:04.949Z,101195.16
2022-12-26T16:44:57.516Z,101193.78
2022-12-26T16:47:47.681Z,101186.19
2022-12-26T16:50:47.666Z,101204.94
2022-12-26T16:53:45.677Z,101204.94
2022-12-26T16:56:35.956Z,101213.88
2022-12-26T16:59:30.160Z,101219.84
2022-12-26T17:02:26.627Z,101218.75
2022-12-26T17:05:23.620Z,101222.03
2022-12-26T17:08:16.323Z,101235.59
2022-12-26T17:11:05.694Z,101219.81
2022-12-26T17:13:56.441Z,101246.94
2022-12-26T17:16:47.092Z,101236.94
2022-12-26T17:19:38.164Z,101241.47
2022-12-26T17:22:32.656Z,101247.22
2022-12-26T17:25:27.825Z,101252.34
2022-12-26T17:28:25.400Z,101256.94
2022-12-26T17:31:20.480Z,101268.56
2022-12-26T17:34:20.905Z,101253.66
2022-12-26T17:37:21.881Z,101284.59
2022-12-26T17:40:27.406Z,101280.53
2022-12-26T17:43:25.213Z,101285.97
2022-12-26T17:46:18.067Z,101298.78
2022-12-26T17:49:07.507Z,101297.72
2022-12-26T17:52:01.769Z,101309.94
2022-12-26T17:54:52.438Z,101308.06
2022-12-26T17:57:41.724Z,101305.56
2022-12-26T18:00:31.302Z,101307.78
2022-12-26T18:03:21.105Z,101283.84
2022-12-26T18:06:16.615Z,101310.00
2022-12-26T18:09:08.206Z,101309.38
2022-12-26T18:11:57.715Z,101323.53
2022-12-26T18:14:47.068Z,101326.22
2022-12-26T18:17:36.386Z,101321.09
2022-12-26T18:20:29.041Z,101323.19
2022-12-26T18:23:18.458Z,101340.31
2022-12-26T18:26:17.695Z,101325.09
2022-12-26T18:29:07.334Z,101326.41
2022-12-26T18:31:56.657Z,101336.44
2022-12-26T18:34:46.054Z,101347.88
2022-12-26T18:37:35.342Z,101345.41
2022-12-26T18:40:36.269Z,101339.41
2022-12-26T18:43:26.957Z,101338.03
2022-12-26T18:46:18.994Z,101335.03
2022-12-26T18:49:08.423Z,101358.16
2022-12-26T18:51:58.116Z,101359.78
2022-12-26T18:54:47.414Z,101371.22
2022-12-26T18:57:37.516Z,101362.03
2022-12-26T19:00:28.384Z,101363.72
2022-12-26T19:03:17.637Z,101364.78
2022-12-26T19:06:07.769Z,101356.88
2022-12-26T19:08:58.600Z,101359.31
2022-12-26T19:11:47.911Z,101361.19
2022-12-26T19:14:37.418Z,101375.59
2022-12-26T19:17:28.312Z,101376.53
2022-12-26T19:20:23.297Z,101387.34
2022-12-26T19:23:12.845Z,101389.00
2022-12-26T19:26:02.095Z,101400.41
2022-12-26T19:28:53.481Z,101396.81
2022-12-26T19:31:43.405Z,101401.97
2022-12-26T19:34:34.368Z,101405.50
2022-12-26T19:37:23.731Z,101397.00
2022-12-26T19:40:18.393Z,101392.88
2022-12-26T19:43:10.588Z,101393.66
2022-12-26T19:46:04.051Z,101395.31
2022-12-26T19:48:54.009Z,101396.13
2022-12-26T19:51:44.900Z,101402.38
2022-12-26T19:54:34.252Z,101396.38
2022-12-26T19:57:23.629Z,101406.69
2022-12-26T20:00:14.076Z,101404.25
2022-12-26T20:03:03.526Z,101396.88
2022-12-26T20:05:52.807Z,101400.75
2022-12-26T20:08:45.413Z,101401.53
2022-12-26T20:11:37.339Z,101414.84
2022-12-26T20:14:28.427Z,101409.41
2022-12-26T20:17:17.863Z,101411.56
2022-12-26T20:20:08.591Z,101402.28
2022-12-26T20:22:57.912Z,101406.66
2022-12-26T20:25:48.646Z,101406.63
2022-12-26T20:28:38.443Z,101405.50
2022-12-26T20:31:28.091Z,101404.13
2022-12-26T20:34:19.272Z,101413.63
2022-12-26T20:37:08.627Z,101413.41
2022-12-26T20:39:59.272Z,101413.13
2022-12-26T20:42:50.012Z,101413.63
2022-12-26T20:45:39.487Z,101420.38
2022-12-26T20:48:28.834Z,101435.78
2022-12-26T20:51:24.769Z,101438.47
2022-12-26T20:54:16.165Z,101437.66
2022-12-26T20:57:05.589Z,101447.34
2022-12-26T20:59:56.356Z,101453.66
2022-12-26T21:02:45.852Z,101448.22
2022-12-26T21:05:35.303Z,101446.63
2022-12-26T21:08:24.586Z,101450.69
2022-12-26T21:11:17.107Z,101444.16
2022-12-26T21:14:09.318Z,101425.94
2022-12-26T21:17:00.633Z,101439.00
2022-12-26T21:19:49.928Z,101439.81
2022-12-26T21:22:39.436Z,101441.72
2022-12-26T21:25:28.764Z,101440.56
2022-12-26T21:28:18.457Z,101436.78
2022-12-26T21:31:09.286Z,101442.13
2022-12-26T21:34:01.791Z,101446.97
2022-12-26T21:37:05.416Z,101447.72
2022-12-26T21:39:54.891Z,101459.38
2022-12-26T21:42:44.281Z,101469.13
2022-12-26T21:45:33.564Z,101459.28
2022-12-26T21:48:22.826Z,101466.34
2022-12-26T21:51:13.543Z,101461.69
2022-12-26T21:54:16.643Z,101464.59
2022-12-26T21:57:05.976Z,101469.81
2022-12-26T21:59:58.789Z,101471.47
2022-12-26T22:03:06.340Z,101461.72
2022-12-26T22:05:55.946Z,101468.84
2022-12-26T22:08:46.989Z,101464.25
2022-12-26T22:11:54.018Z,101468.91
2022-12-26T22:14:43.278Z,101467.47
2022-12-26T22:17:32.652Z,101464.81
2022-12-26T22:20:21.919Z,101462.69
2022-12-26T22:23:11.561Z,101468.41
2022-12-26T22:26:02.827Z,101468.91
2022-12-26T22:28:52.336Z,101480.88
2022-12-26T22:31:41.625Z,101473.00
2022-12-26T22:34:31.015Z,101451.84
2022-12-26T22:37:20.251Z,101463.34
2022-12-26T22:40:11.568Z,101467.06
2022-12-26T22:43:02.232Z,101471.63
2022-12-26T22:45:51.785Z,101473.63
2022-12-26T22:48:41.695Z,101460.56
2022-12-26T22:51:31.311Z,101469.91
2022-12-26T22:54:20.574Z,101466.13
2022-12-26T22:57:10.217Z,101463.25
2022-12-26T23:00:09.568Z,101469.53
2022-12-26T23:02:59.603Z,101462.25
2022-12-26T23:05:49.787Z,101485.38
2022-12-26T23:08:39.723Z,101449.69
2022-12-26T23:11:35.140Z,101479.03
2022-12-26T23:14:25.084Z,101476.38
2022-12-26T23:17:39.183Z,101487.22
2022-12-26T23:20:50.150Z,101482.56
2022-12-26T23:23:40.453Z,101475.69
2022-12-26T23:26:29.738Z,101481.59
2022-12-26T23:29:39.759Z,101481.09
2022-12-26T23:32:30.558Z,101485.72
2022-12-26T23:35:22.035Z,101471.78
2022-12-26T23:38:11.329Z,101478.66
2022-12-26T23:41:00.668Z,101487.63
2022-12-26T23:43:49.985Z,101484.94
2022-12-26T23:46:40.697Z,101483.03
2022-12-26T23:49:31.489Z,101492.97
2022-12-26T23:52:26.752Z,101486.53
2022-12-26T23:55:19.462Z,101495.72
2022-12-26T23:58:08.806Z,101504.69
